Latest Weather Observations for Ceduna

IDS60801

Issued at 9:01 am CDT Wednesday 23 October 2019 (issued every 10 minutes, with the page automatically refreshed every 10 minutes)

About weather observations | Map of weather stations | Latest weather observations for SA | Other Formats
Station Details ID: 018012 Name: CEDUNA AMO Lat: -32.13 Lon: 133.70 Height: 15.3 m
Data from the previous 72 hours. | See also: Recent months at Ceduna
Date/Time
CDT
Temp
°C
App
Temp
°C
Dew
Point
°C
Rel
Hum
%
Delta-T
°C
Wind Press
QNH
hPa
Press
MSL
hPa
Rain since
9am
mm
Dir  Spd
km/h
Gust
km/h
Spd
kts
Gust
kts
23/09:00am 27.2 20.6 -7.0 10 14.1 NNE 20 26 11 14 1016.3 1016.3 0.0
23/08:30am 23.5 17.5 -6.5 13 12.0 NE 17 20 9 11 1016.4 1016.4 0.0
23/08:00am 20.3 13.8 -6.3 16 10.4 NE 20 26 11 14 1016.2 1016.2 0.0
23/07:30am 17.1 11.9 -6.0 20 8.7 ENE 13 17 7 9 1016.0 1016.0 0.0
23/07:00am 14.8 8.9 -6.1 23 7.7 ENE 17 17 9 9 1015.7 1015.7 0.0
23/06:30am 14.9 8.9 -6.6 22 7.8 NE 17 19 9 10 1015.5 1015.5 0.0
23/06:00am 15.7 10.1 -6.5 21 8.2 NE 15 19 8 10 1015.3 1015.3 0.0
23/05:30am 16.5 10.5 -6.5 20 8.6 NE 17 19 9 10 1015.1 1015.1 0.0
23/05:00am 17.6 11.6 -6.3 19 9.1 NE 17 20 9 11 1015.0 1015.0 0.0
23/04:30am 18.3 11.9 -6.4 18 9.4 NE 19 20 10 11 1015.0 1015.0 0.0
23/04:00am 17.8 11.9 -6.1 19 9.1 NE 17 20 9 11 1015.2 1015.2 0.0
23/03:30am 18.2 12.3 -5.8 19 9.2 NE 17 20 9 11 1015.3 1015.3 0.0
23/03:00am 17.8 12.2 -6.1 19 9.1 NE 15 17 8 9 1015.5 1015.5 0.0
23/02:30am 18.9 13.0 -5.9 18 9.6 NE 17 19 9 10 1015.8 1015.8 0.0
23/02:00am 17.7 11.5 -4.9 21 8.8 NE 19 20 10 11 1016.0 1016.0 0.0
23/01:30am 16.3 10.2 -3.7 25 7.9 ENE 19 19 10 10 1016.3 1016.3 0.0
23/01:00am 17.3 11.3 -2.9 25 8.2 ENE 19 20 10 11 1016.3 1016.3 0.0
23/12:30am 18.3 12.2 -2.6 24 8.6 E 20 24 11 13 1016.4 1016.4 0.0
23/12:00am 18.0 12.1 -2.3 25 8.4 E 19 22 10 12 1016.8 1016.8 0.0
 
Date/Time
CDT
Temp
°C
App
Temp
°C
Dew
Point
°C
Rel
Hum
%
Delta-T
°C
Wind Press
QNH
hPa
Press
MSL
hPa
Rain since
9am
mm
Dir  Spd
km/h
Gust
km/h
Spd
kts
Gust
kts
22/11:30pm 19.3 13.8 -2.3 23 9.0 E 17 20 9 11 1017.0 1017.0 0.0
22/11:00pm 20.5 14.4 -2.5 21 9.7 ESE 20 24 11 13 1017.2 1017.2 0.0
22/10:30pm 20.8 15.1 -1.1 23 9.5 ESE 19 22 10 12 1017.4 1017.4 0.0
22/10:00pm 20.6 15.0 1.5 28 8.7 SE 20 22 11 12 1017.5 1017.5 0.0
22/09:30pm 22.3 16.1 1.9 26 9.5 SE 24 32 13 17 1017.3 1017.3 0.0
22/09:00pm 23.0 17.3 3.0 27 9.6 SE 22 28 12 15 1016.9 1016.9 0.0
22/08:30pm 23.5 17.5 1.2 23 10.4 SE 22 28 12 15 1016.7 1016.7 0.0
22/08:00pm 24.4 18.2 1.9 23 10.7 SE 24 32 13 17 1016.5 1016.5 0.0
22/07:30pm 25.8 20.0 2.5 22 11.3 SE 22 28 12 15 1016.3 1016.3 0.0
22/07:00pm 25.8 20.9 8.3 33 9.4 S 24 32 13 17 1016.1 1016.1 0.0
22/06:30pm 28.1 22.9 5.6 24 11.7 S 22 28 12 15 1016.0 1016.0 0.0
22/06:00pm 30.0 23.3 -1.4 13 14.6 S 24 32 13 17 1015.8 1015.8 0.0
22/05:30pm 29.8 23.1 1.3 16 13.9 S 26 30 14 16 1015.8 1015.8 0.0
22/05:00pm 31.1 24.8 1.4 15 14.6 SSW 24 32 13 17 1015.7 1015.7 0.0
22/04:30pm 33.8 28.7 -5.0 8 17.5 NE 13 26 7 14 1016.0 1016.0 0.0
22/04:00pm 33.0 28.2 -5.6 8 17.1 NNE 11 24 6 13 1016.4 1016.4 0.0
22/03:30pm 32.5 27.7 -6.0 8 16.9 N 11 26 6 14 1016.7 1016.7 0.0
22/03:00pm 33.5 28.0 -5.2 8 17.3 ENE 15 30 8 16 1017.1 1017.1 0.0
22/02:30pm 32.5 26.7 -4.4 9 16.6 NE 17 30 9 16 1017.5 1017.5 0.0
22/02:00pm 32.5 26.2 -4.4 9 16.6 NE 20 35 11 19 1018.0 1018.0 0.0
22/01:30pm 31.9 26.1 -4.9 9 16.4 NNE 17 30 9 16 1018.5 1018.5 0.0
22/01:00pm 31.1 24.6 -5.5 9 16.0 N 20 32 11 17 1019.1 1019.1 0.0
22/12:30pm 30.9 24.2 -4.2 10 15.7 N 22 37 12 20 1019.6 1019.6 0.0
22/12:00pm 29.8 22.6 -5.1 10 15.2 N 24 35 13 19 1020.1 1020.1 0.0
22/11:30am 29.8 22.8 -3.8 11 14.9 NNE 24 37 13 20 1020.5 1020.5 0.0
22/11:00am 29.0 21.3 -3.2 12 14.4 NNE 28 37 15 20 1020.7 1020.7 0.0
22/10:30am 28.4 19.9 -3.7 12 14.1 NNE 32 41 17 22 1020.7 1020.7 0.0
22/10:00am 27.8 20.1 -3.1 13 13.7 NNE 28 35 15 19 1020.9 1020.9 0.0
22/09:30am 26.4 19.4 -3.2 14 12.9 NNE 24 33 13 18 1020.9 1020.9 0.0
22/09:00am 24.2 17.9 -4.0 15 11.9 NE 20 26 11 14 1020.9 1020.9 0.0
22/08:30am 22.1 16.1 -3.3 18 10.7 NE 19 26 10 14 1020.9 1020.9 0.0
22/08:00am 18.6 13.0 -2.9 23 8.8 NE 17 20 9 11 1020.8 1020.8 0.0
22/07:30am 15.9 10.2 -3.6 26 7.7 NE 17 19 9 10 1020.6 1020.6 0.0
22/07:00am 12.6 6.9 -3.6 32 6.2 ENE 17 19 9 10 1020.3 1020.3 0.0
22/06:30am 12.6 6.3 -4.1 31 6.3 ENE 20 22 11 12 1019.9 1019.9 0.0
22/06:00am 13.0 6.9 -4.1 30 6.4 ENE 19 20 10 11 1019.7 1019.7 0.0
22/05:30am 14.1 8.4 -3.6 29 6.8 ENE 17 19 9 10 1019.6 1019.6 0.0
22/05:00am 16.1 10.1 -3.4 26 7.7 NE 19 22 10 12 1019.6 1019.6 0.0
22/04:30am 16.6 10.5 -4.0 24 8.1 NE 19 24 10 13 1019.6 1019.6 0.0
22/04:00am 15.9 9.8 -3.6 26 7.7 NE 19 20 10 11 1019.5 1019.5 0.0
22/03:30am 14.2 7.9 -4.0 28 7.0 ENE 20 24 11 13 1019.7 1019.7 0.0
22/03:00am 14.4 8.3 -4.3 27 7.1 ENE 19 20 10 11 1019.8 1019.8 0.0
22/02:30am 13.9 7.8 -4.3 28 6.9 ENE 19 19 10 10 1019.9 1019.9 0.0
22/02:00am 14.4 8.3 -4.3 27 7.1 ENE 19 20 10 11 1020.1 1020.1 0.0
22/01:30am 14.5 8.4 -4.2 27 7.1 ENE 19 20 10 11 1020.3 1020.3 0.0
22/01:00am 15.3 9.1 -4.6 25 7.6 ENE 19 20 10 11 1020.5 1020.5 0.0
22/12:30am 16.0 9.8 -4.5 24 7.9 ENE 19 20 10 11 1020.6 1020.6 0.0
22/12:00am 16.3 10.2 -4.3 24 8.0 ENE 19 20 10 11 1020.6 1020.6 0.0
 
Date/Time
CDT
Temp
°C
App
Temp
°C
Dew
Point
°C
Rel
Hum
%
Delta-T
°C
Wind Press
QNH
hPa
Press
MSL
hPa
Rain since
9am
mm
Dir  Spd
km/h
Gust
km/h
Spd
kts
Gust
kts
21/11:30pm 16.8 10.6 -4.4 23 8.3 ENE 19 20 10 11 1020.9 1020.9 0.0
21/11:00pm 16.4 10.6 -4.8 23 8.2 NE 17 19 9 10 1020.9 1020.9 0.0
21/10:30pm 17.8 12.0 -4.8 21 8.8 ENE 17 19 9 10 1021.0 1021.0 0.0
21/10:00pm 19.7 13.5 -4.5 19 9.7 ENE 19 20 10 11 1021.0 1021.0 0.0
21/09:30pm 20.1 13.9 -4.9 18 10.0 ENE 19 20 10 11 1020.8 1020.8 0.0
21/09:00pm 20.3 15.6 -5.5 17 10.2 NE 11 15 6 8 1020.6 1020.6 0.0
21/08:30pm 23.0 18.2 -5.9 14 11.6 NNE 11 15 6 8 1020.3 1020.3 0.0
21/08:00pm 26.2 20.7 -5.4 12 13.3 NNE 15 20 8 11 1020.0 1020.0 0.0
21/07:30pm 28.7 22.9 -4.6 11 14.5 NNE 17 20 9 11 1019.8 1019.8 0.0
21/07:00pm 29.9 23.5 -5.0 10 15.3 NNE 20 28 11 15 1019.8 1019.8 0.0
21/06:30pm 31.1 24.0 -4.1 10 15.7 NNE 24 32 13 17 1019.7 1019.7 0.0
21/06:00pm 30.8 25.0 -4.3 10 15.6 NE 17 22 9 12 1019.7 1019.7 0.0
21/05:30pm 31.1 25.4 -4.1 10 15.7 ENE 17 24 9 13 1019.6 1019.6 0.0
21/05:00pm 31.9 26.1 -4.9 9 16.4 NNE 17 24 9 13 1019.7 1019.7 0.0
21/04:30pm 31.2 24.9 -5.4 9 16.0 NE 19 28 10 15 1019.8 1019.8 0.0
21/04:00pm 30.8 25.0 -4.3 10 15.7 NE 17 30 9 16 1020.2 1020.2 0.0
21/03:30pm 30.1 23.7 -4.8 10 15.3 NNE 20 28 11 15 1020.5 1020.5 0.0
21/03:00pm 31.7 25.1 -3.6 10 16.0 NNE 22 32 12 17 1020.8 1020.8 0.0
21/02:30pm 30.8 24.6 -3.0 11 15.4 NE 20 28 11 15 1021.2 1021.2 0.0
21/02:00pm 30.1 22.7 -3.6 11 15.1 NNE 26 35 14 19 1021.6 1021.6 0.0
21/01:30pm 30.1 23.5 -3.6 11 15.1 NNE 22 39 12 21 1021.9 1021.9 0.0
21/01:00pm 29.9 23.1 -1.5 13 14.6 NNE 24 33 13 18 1022.2 1022.2 0.0
21/12:30pm 29.0 21.4 -2.2 13 14.2 NNE 28 37 15 20 1022.7 1022.7 0.0
21/12:00pm 27.9 20.9 -0.2 16 13.1 NNE 26 39 14 21 1023.2 1023.2 0.0
21/11:30am 25.3 18.4 0.0 19 11.6 NNE 26 35 14 19 1023.6 1023.6 0.0
21/11:00am 23.8 17.1 1.4 23 10.5 NNE 26 32 14 17 1023.9 1023.9 0.0
21/10:30am 21.6 14.7 2.3 28 9.0 NE 28 35 15 19 1024.0 1024.0 0.0
21/10:00am 19.7 13.6 2.6 32 7.9 NE 24 33 13 18 1024.2 1024.2 0.0
21/09:30am 18.6 12.6 3.3 36 7.1 NE 24 33 13 18 1024.8 1024.8 0.0
21/09:00am 17.2 10.8 3.1 39 6.4 ENE 26 33 14 18 1024.6 1024.6 0.0
21/08:30am 16.6 10.1 2.6 39 6.3 ENE 26 32 14 17 1024.4 1024.4 0.0
21/08:00am 15.7 9.4 1.8 39 6.1 ENE 24 28 13 15 1024.5 1024.5 0.0
21/07:30am 14.8 8.5 1.3 40 5.8 ENE 24 28 13 15 1024.4 1024.4 0.0
21/07:00am 14.6 7.8 0.8 39 5.9 ENE 26 30 14 16 1023.7 1023.7 0.0
21/06:30am 12.9 6.9 1.0 44 5.0 ENE 22 24 12 13 1023.4 1023.4 0.0
21/06:00am 12.9 7.3 1.3 45 4.9 ENE 20 24 11 13 1023.4 1023.4 0.0
21/05:30am 13.7 8.1 1.4 43 5.3 ENE 20 24 11 13 1023.3 1023.3 0.0
21/05:00am 13.6 8.4 2.2 46 5.0 ENE 19 20 10 11 1023.3 1023.3 0.0
21/04:30am 14.1 8.7 2.7 46 5.0 ENE 20 24 11 13 1023.3 1023.3 0.0
21/04:00am 13.0 8.4 3.7 53 4.2 ENE 17 20 9 11 1023.3 1023.3 0.0
21/03:30am 13.0 8.6 4.7 57 3.8 ENE 17 20 9 11 1023.2 1023.2 0.0
21/03:00am 13.9 9.5 4.8 54 4.2 ENE 17 22 9 12 1023.3 1023.3 0.0
21/02:30am 14.6 9.8 5.7 55 4.2 E 20 22 11 12 1023.5 1023.5 0.0
21/02:00am 14.3 9.9 6.4 59 3.8 E 19 20 10 11 1024.0 1024.0 0.0
21/01:30am 12.7 10.2 6.7 67 2.9 NE 9 11 5 6 1024.5 1024.5 0.0
21/01:00am 13.8 10.2 6.9 63 3.3 ENE 15 17 8 9 1025.0 1025.0 0.0
21/12:30am 15.3 11.8 7.3 59 3.9 E 15 19 8 10 1025.0 1025.0 0.0
21/12:00am 15.7 11.4 7.7 59 4.0 ESE 20 22 11 12 1024.8 1024.8 0.0
 
Date/Time
CDT
Temp
°C
App
Temp
°C
Dew
Point
°C
Rel
Hum
%
Delta-T
°C
Wind Press
QNH
hPa
Press
MSL
hPa
Rain since
9am
mm
Dir  Spd
km/h
Gust
km/h
Spd
kts
Gust
kts
20/11:30pm 15.5 11.4 7.8 60 3.8 ESE 19 24 10 13 1024.9 1024.9 0.0
20/11:00pm 15.6 12.0 8.4 62 3.6 ESE 17 20 9 11 1025.1 1025.1 0.0
20/10:30pm 15.7 11.9 9.1 65 3.4 E 19 20 10 11 1025.0 1025.0 0.0
20/10:00pm 15.1 13.2 9.2 68 3.0 E 9 13 5 7 1025.4 1025.4 0.0
20/09:30pm 15.8 12.8 9.2 65 3.4 ESE 15 17 8 9 1025.3 1025.3 0.0
20/09:00pm 17.4 13.7 9.6 60 4.1 SE 19 26 10 14 1024.8 1024.8 0.0
20/08:30pm 17.7 14.3 10.6 63 3.8 SE 19 22 10 12 1024.6 1024.6 0.0
20/08:00pm 18.3 13.8 10.2 59 4.3 SE 24 30 13 16 1024.3 1024.3 0.0
20/07:30pm 19.2 14.5 9.4 53 5.2 SSE 24 32 13 17 1024.2 1024.2 0.0
20/07:00pm 19.7 15.1 10.9 57 4.8 SSE 26 35 14 19 1024.1 1024.1 0.0
20/06:30pm 20.0 13.5 9.0 49 5.8 SSE 33 44 18 24 1024.1 1024.1 0.0
20/06:00pm 20.2 14.3 10.3 53 5.3 SSE 32 43 17 23 1024.0 1024.0 0.0
20/05:30pm 20.4 14.3 9.9 51 5.6 SSE 32 39 17 21 1023.9 1023.9 0.0
20/05:00pm 21.8 16.1 9.7 46 6.5 S 30 37 16 20 1024.0 1024.0 0.0
20/04:30pm 23.3 17.1 7.8 37 8.1 S 30 37 16 20 1024.0 1024.0 0.0
20/04:00pm 23.8 18.0 7.8 36 8.4 S 28 35 15 19 1024.1 1024.1 0.0
20/03:30pm 24.5 18.3 6.3 31 9.3 S 28 33 15 18 1024.2 1024.2 0.0
20/03:00pm 24.5 19.1 6.3 31 9.3 S 24 32 13 17 1024.8 1024.8 0.0
20/02:30pm 24.3 20.5 5.6 30 9.4 ESE 15 20 8 11 1025.4 1025.4 0.0
20/02:00pm 25.4 20.1 -0.6 18 11.9 NE 17 28 9 15 1025.4 1025.4 0.0
20/01:30pm 24.7 20.0 0.9 21 11.0 NE 15 28 8 15 1025.9 1025.9 0.0
20/01:00pm 23.0 18.5 1.9 25 9.9 ENE 15 20 8 11 1026.5 1026.5 0.0
20/12:30pm 22.8 18.5 3.4 28 9.3 ENE 15 24 8 13 1027.1 1027.1 0.0
20/12:00pm 21.1 16.5 3.8 32 8.3 ENE 17 24 9 13 1027.4 1027.4 0.0
20/11:30am 20.1 16.6 5.4 38 7.2 ENE 13 24 7 13 1027.8 1027.8 0.0
20/11:00am 18.5 14.0 6.0 44 6.2 ENE 19 24 10 13 1028.2 1028.2 0.0
20/10:30am 17.6 13.2 6.5 48 5.4 ENE 19 26 10 14 1028.6 1028.6 0.0
20/10:00am 16.0 11.3 6.2 52 4.8 ENE 20 26 11 14 1028.7 1028.7 0.0
20/09:30am 14.5 9.5 6.3 58 3.9 ENE 22 28 12 15 1028.6 1028.6 0.0

Other formats

Comma delimited format used in spreadsheet applications
http://www.bom.gov.au/fwo/IDS60801/IDS60801.94653.axf

JavaScript Object Notation format (JSON) in row-major order
http://www.bom.gov.au/fwo/IDS60801/IDS60801.94653.json

Data quality

Most of these data are generated automatically and are frequently updated. Quality checks on data are not normally performed. It is possible for incorrect values to appear. Refer to information at About Latest Weather Observations and please check the disclaimer before using these data.